createdAt,value
2024-03-20T00:00:16.724Z,2.90
2024-03-20T00:02:45.808Z,2.80
2024-03-20T00:05:18.052Z,2.70
2024-03-20T00:07:49.604Z,3.50
2024-03-20T00:10:18.601Z,2.60
2024-03-20T00:12:49.228Z,2.80
2024-03-20T00:15:20.168Z,3.40
2024-03-20T00:17:49.472Z,3.30
2024-03-20T00:20:36.821Z,3.30
2024-03-20T00:23:23.821Z,3.70
2024-03-20T00:29:34.317Z,3.50
2024-03-20T00:32:03.614Z,3.80
2024-03-20T00:34:32.393Z,3.60
2024-03-20T00:37:01.053Z,3.70
2024-03-20T00:39:29.802Z,3.40
2024-03-20T00:41:58.599Z,4.10
2024-03-20T00:44:27.241Z,3.50
2024-03-20T00:46:57.361Z,3.80
2024-03-20T00:49:26.135Z,3.90
2024-03-20T00:51:54.825Z,3.90
2024-03-20T00:54:30.685Z,3.70
2024-03-20T00:57:00.107Z,5.40
2024-03-20T00:59:28.809Z,4.00
2024-03-20T01:01:57.789Z,3.70
2024-03-20T01:04:30.592Z,4.20
2024-03-20T01:06:59.285Z,3.50
2024-03-20T01:09:46.081Z,4.00
2024-03-20T01:12:15.688Z,4.20
2024-03-20T01:14:50.624Z,3.90
2024-03-20T01:17:19.481Z,4.00
2024-03-20T01:19:48.230Z,4.20
2024-03-20T01:22:17.193Z,4.20
2024-03-20T01:24:46.496Z,4.30
2024-03-20T01:27:15.315Z,4.40
2024-03-20T01:29:44.060Z,4.70
2024-03-20T01:32:13.222Z,4.20
2024-03-20T01:34:42.020Z,4.80
2024-03-20T01:37:10.565Z,3.50
2024-03-20T01:39:39.103Z,4.10
2024-03-20T01:42:07.917Z,4.20
2024-03-20T01:44:36.911Z,4.10
2024-03-20T01:47:09.240Z,5.00
2024-03-20T01:49:38.786Z,4.40
2024-03-20T01:52:14.427Z,4.60
2024-03-20T01:54:43.194Z,4.60
2024-03-20T01:57:11.910Z,3.90
2024-03-20T01:59:40.941Z,4.50
2024-03-20T02:02:09.949Z,4.80
2024-03-20T02:04:42.290Z,4.80
2024-03-20T02:07:11.727Z,3.60
2024-03-20T02:09:40.491Z,4.90
2024-03-20T02:12:09.379Z,4.90
2024-03-20T02:14:41.543Z,4.90
2024-03-20T02:17:10.300Z,4.60
2024-03-20T02:19:39.134Z,5.10
2024-03-20T02:22:07.817Z,4.70
2024-03-20T02:24:36.899Z,4.00
2024-03-20T02:27:06.224Z,4.60
2024-03-20T02:29:35.164Z,5.20
2024-03-20T02:32:05.082Z,5.10
2024-03-20T02:34:33.889Z,5.60
2024-03-20T02:37:02.972Z,6.00
2024-03-20T02:39:31.683Z,5.80
2024-03-20T02:42:00.522Z,6.20
2024-03-20T02:44:29.258Z,6.10
2024-03-20T02:46:58.111Z,5.60
2024-03-20T02:49:26.849Z,6.80
2024-03-20T02:51:55.495Z,5.70
2024-03-20T02:54:24.417Z,5.50
2024-03-20T02:56:53.173Z,5.40
2024-03-20T02:59:21.762Z,6.50
2024-03-20T03:01:50.522Z,6.30
2024-03-20T03:04:19.232Z,6.10
2024-03-20T03:06:48.000Z,6.10
2024-03-20T03:09:21.416Z,6.70
2024-03-20T03:11:50.153Z,6.40
2024-03-20T03:14:19.081Z,6.70
2024-03-20T03:16:47.891Z,6.80
2024-03-20T03:19:16.599Z,6.80
2024-03-20T03:21:45.314Z,7.30
2024-03-20T03:24:13.949Z,6.50
2024-03-20T03:26:42.693Z,6.80
2024-03-20T03:29:11.334Z,7.10
2024-03-20T03:31:40.076Z,6.80
2024-03-20T03:34:10.622Z,6.90
2024-03-20T03:36:39.821Z,6.90
2024-03-20T03:39:14.288Z,6.90
2024-03-20T03:41:43.073Z,7.30
2024-03-20T03:44:11.748Z,7.40
2024-03-20T03:46:40.312Z,6.50
2024-03-20T03:49:10.876Z,7.50
2024-03-20T03:51:39.485Z,7.30
2024-03-20T03:54:08.165Z,6.70
2024-03-20T03:56:36.876Z,7.50
2024-03-20T03:59:05.841Z,6.50
2024-03-20T04:01:34.631Z,6.80
2024-03-20T04:04:03.436Z,6.70
2024-03-20T04:06:32.174Z,6.50
2024-03-20T04:09:01.010Z,6.90
2024-03-20T04:11:29.718Z,6.10
2024-03-20T04:14:01.398Z,6.60
2024-03-20T04:16:32.684Z,7.40
2024-03-20T04:19:01.457Z,5.40
2024-03-20T04:21:30.377Z,6.60
2024-03-20T04:23:59.357Z,7.90
2024-03-20T04:26:30.376Z,6.20
2024-03-20T04:28:59.196Z,7.10
2024-03-20T04:31:27.979Z,7.00
2024-03-20T04:37:32.500Z,7.20
2024-03-20T04:40:01.218Z,6.80
2024-03-20T04:42:30.184Z,6.50
2024-03-20T04:45:00.060Z,6.80
2024-03-20T04:47:29.042Z,6.20
2024-03-20T04:50:00.870Z,5.20
2024-03-20T04:52:29.677Z,5.90
2024-03-20T04:54:58.542Z,6.30
2024-03-20T04:57:27.193Z,6.80
2024-03-20T05:03:17.034Z,6.40
2024-03-20T05:06:24.894Z,7.00
2024-03-20T05:08:53.487Z,7.00
2024-03-20T05:11:22.948Z,6.00
2024-03-20T05:17:33.385Z,6.70
2024-03-20T05:20:02.513Z,6.50
2024-03-20T05:22:31.073Z,6.80
2024-03-20T05:25:01.612Z,7.00
2024-03-20T05:27:29.894Z,6.90
2024-03-20T05:29:58.142Z,5.70
2024-03-20T05:32:27.196Z,6.40
2024-03-20T05:34:55.460Z,9.50
2024-03-20T05:37:23.697Z,6.40
2024-03-20T05:39:52.171Z,6.50
2024-03-20T05:42:21.477Z,6.20
2024-03-20T05:44:53.036Z,6.00
2024-03-20T05:47:21.317Z,6.60
2024-03-20T05:49:49.903Z,7.40
2024-03-20T05:52:27.408Z,6.80
2024-03-20T05:54:58.228Z,6.30
2024-03-20T05:57:26.813Z,5.50
2024-03-20T05:59:57.536Z,5.60
2024-03-20T06:02:25.809Z,5.60
2024-03-20T06:04:54.009Z,5.20
2024-03-20T06:07:22.681Z,5.80
2024-03-20T06:09:51.080Z,6.10
2024-03-20T06:12:19.255Z,6.40
2024-03-20T06:14:47.566Z,6.80
2024-03-20T06:17:17.060Z,5.80
2024-03-20T06:19:45.406Z,6.30
2024-03-20T06:22:13.684Z,6.00
2024-03-20T06:24:42.586Z,6.40
2024-03-20T06:27:13.135Z,6.20
2024-03-20T06:29:44.273Z,5.00
2024-03-20T06:32:15.302Z,5.50
2024-03-20T06:34:49.609Z,5.80
2024-03-20T06:37:18.005Z,5.20
2024-03-20T06:39:47.588Z,5.00
2024-03-20T06:42:21.856Z,5.40
2024-03-20T06:44:50.901Z,5.60
2024-03-20T06:47:20.117Z,4.00
2024-03-20T06:49:49.739Z,5.40
2024-03-20T06:52:23.589Z,5.20
2024-03-20T06:54:53.800Z,4.30
2024-03-20T06:57:22.104Z,5.20
2024-03-20T06:59:56.435Z,5.30
2024-03-20T07:02:25.289Z,4.50
2024-03-20T07:04:56.798Z,4.90
2024-03-20T07:07:30.831Z,4.50
2024-03-20T07:09:59.018Z,5.30
2024-03-20T07:12:31.315Z,5.20
2024-03-20T07:15:00.984Z,5.30
2024-03-20T07:20:37.252Z,5.20
2024-03-20T07:23:08.980Z,4.80
2024-03-20T07:25:37.628Z,5.10
2024-03-20T07:28:06.643Z,5.20
2024-03-20T07:30:35.738Z,6.10
2024-03-20T07:36:44.134Z,5.60
2024-03-20T07:39:13.752Z,5.90
2024-03-20T07:41:42.624Z,5.70
2024-03-20T07:44:11.543Z,5.50
2024-03-20T07:46:40.236Z,6.00
2024-03-20T07:49:14.415Z,5.70
2024-03-20T07:51:43.192Z,5.40
2024-03-20T07:54:13.662Z,5.80
2024-03-20T07:56:42.577Z,4.70
2024-03-20T07:59:11.330Z,5.90
2024-03-20T08:01:42.141Z,5.60
2024-03-20T08:04:11.187Z,5.40
2024-03-20T08:06:39.952Z,4.60
2024-03-20T08:09:09.969Z,5.70
2024-03-20T08:11:38.820Z,4.90
2024-03-20T08:14:11.164Z,4.60
2024-03-20T08:16:41.014Z,5.10
2024-03-20T08:19:10.140Z,4.90
2024-03-20T08:21:39.220Z,4.80
2024-03-20T08:24:08.327Z,3.80
2024-03-20T08:26:37.110Z,4.30
2024-03-20T08:29:05.915Z,4.30
2024-03-20T08:31:35.679Z,4.20
2024-03-20T08:34:04.487Z,4.70
2024-03-20T08:36:33.174Z,4.70
2024-03-20T08:39:02.091Z,4.10
2024-03-20T08:41:30.871Z,3.70
2024-03-20T08:43:59.598Z,4.50
2024-03-20T08:46:28.811Z,4.30
2024-03-20T08:49:40.022Z,3.80
2024-03-20T08:52:08.757Z,3.80
2024-03-20T08:54:39.192Z,4.00
2024-03-20T08:57:09.373Z,3.80
2024-03-20T08:59:37.678Z,3.20
2024-03-20T09:02:10.122Z,4.10
2024-03-20T09:04:38.721Z,4.00
2024-03-20T09:07:06.986Z,4.00
2024-03-20T09:09:36.504Z,4.20
2024-03-20T09:12:06.031Z,4.40
2024-03-20T09:14:36.435Z,4.70
2024-03-20T09:20:26.869Z,4.50
2024-03-20T09:22:57.304Z,4.50
2024-03-20T09:25:26.364Z,4.70
2024-03-20T09:27:55.118Z,4.80
2024-03-20T09:30:26.906Z,3.80
2024-03-20T09:32:55.823Z,4.40
2024-03-20T09:35:24.644Z,4.40
2024-03-20T09:37:55.078Z,3.70
2024-03-20T09:40:27.674Z,4.00
2024-03-20T09:42:57.174Z,4.40
2024-03-20T09:45:26.719Z,4.60
2024-03-20T09:47:59.962Z,3.70
2024-03-20T09:50:31.922Z,3.80
2024-03-20T09:53:00.606Z,3.80
2024-03-20T09:55:30.650Z,4.40
2024-03-20T09:58:01.781Z,4.20
2024-03-20T10:00:32.321Z,4.40
2024-03-20T10:03:01.765Z,4.30
2024-03-20T10:05:30.424Z,4.20
2024-03-20T10:11:34.375Z,4.40
2024-03-20T10:14:02.903Z,5.00
2024-03-20T10:16:34.718Z,4.80
2024-03-20T10:19:02.777Z,4.80
2024-03-20T10:21:31.209Z,4.80
2024-03-20T10:24:01.208Z,4.90
2024-03-20T10:26:29.406Z,4.90
2024-03-20T10:29:02.398Z,4.60
2024-03-20T10:31:31.531Z,4.70
2024-03-20T10:34:05.050Z,4.70
2024-03-20T10:36:37.828Z,4.80
2024-03-20T10:39:24.883Z,4.40
2024-03-20T10:41:57.779Z,4.00
2024-03-20T10:44:28.542Z,4.30
2024-03-20T10:46:58.079Z,4.50
2024-03-20T10:49:27.874Z,4.60
2024-03-20T10:51:57.542Z,4.60
2024-03-20T10:54:26.898Z,4.10
2024-03-20T10:57:01.618Z,4.50
2024-03-20T10:59:35.895Z,4.30
2024-03-20T11:02:17.156Z,4.90
2024-03-20T11:04:46.516Z,3.70
2024-03-20T11:07:25.806Z,4.20
2024-03-20T11:09:54.125Z,3.50
2024-03-20T11:12:37.980Z,4.20
2024-03-20T11:15:07.814Z,4.30
2024-03-20T11:17:38.082Z,4.50
2024-03-20T11:20:36.808Z,4.30
2024-03-20T11:23:11.770Z,4.50
2024-03-20T11:25:40.447Z,4.80
2024-03-20T11:28:08.803Z,4.30
2024-03-20T11:30:39.770Z,4.10
2024-03-20T11:33:13.161Z,4.30
2024-03-20T11:35:42.322Z,5.30
2024-03-20T11:38:20.213Z,5.00
2024-03-20T11:43:59.065Z,4.40
2024-03-20T11:46:27.985Z,5.00
2024-03-20T11:49:00.055Z,5.00
2024-03-20T11:51:30.133Z,4.80
2024-03-20T11:54:20.551Z,5.10
2024-03-20T11:56:50.022Z,5.10
2024-03-20T11:59:22.104Z,4.90
2024-03-20T12:01:56.548Z,5.00
2024-03-20T12:04:27.766Z,5.20
2024-03-20T12:06:56.578Z,5.90
2024-03-20T12:09:39.295Z,5.80
2024-03-20T12:12:10.073Z,5.40
2024-03-20T12:14:38.731Z,6.10
2024-03-20T12:17:09.663Z,5.90
2024-03-20T12:19:38.850Z,6.10
2024-03-20T12:22:07.915Z,6.70
2024-03-20T12:24:37.054Z,7.00
2024-03-20T12:27:06.963Z,6.80
2024-03-20T12:29:36.396Z,7.30
2024-03-20T12:32:05.786Z,6.90
2024-03-20T12:34:34.766Z,6.70
2024-03-20T12:37:03.905Z,6.80
2024-03-20T12:39:35.755Z,7.30
2024-03-20T12:42:04.782Z,7.80
2024-03-20T12:44:35.194Z,7.60
2024-03-20T12:47:03.979Z,7.20
2024-03-20T12:49:42.164Z,7.00
2024-03-20T12:52:15.532Z,7.10
2024-03-20T12:54:53.792Z,6.40
2024-03-20T12:57:23.343Z,7.40
2024-03-20T12:59:51.985Z,7.40
2024-03-20T13:02:21.659Z,6.30
2024-03-20T13:04:50.227Z,7.60
2024-03-20T13:07:19.370Z,6.60
2024-03-20T13:09:52.130Z,6.60
2024-03-20T13:12:21.131Z,7.10
2024-03-20T13:14:52.494Z,8.30
2024-03-20T13:17:22.488Z,7.90
2024-03-20T13:19:52.362Z,6.80
2024-03-20T13:22:22.759Z,7.00
2024-03-20T13:24:52.035Z,8.10
2024-03-20T13:27:22.620Z,6.60
2024-03-20T13:32:59.904Z,6.90
2024-03-20T13:35:29.293Z,7.30
2024-03-20T13:38:05.866Z,6.80
2024-03-20T13:40:44.438Z,6.80
2024-03-20T13:43:18.995Z,7.70
2024-03-20T13:46:01.881Z,7.50
2024-03-20T13:48:34.385Z,7.60
2024-03-20T13:51:05.016Z,6.90
2024-03-20T13:53:34.113Z,6.50
2024-03-20T13:56:03.103Z,8.40
2024-03-20T13:58:32.051Z,7.40
2024-03-20T14:01:03.863Z,8.00
2024-03-20T14:03:35.255Z,7.00
2024-03-20T14:06:05.533Z,6.90
2024-03-20T14:08:38.680Z,5.90
2024-03-20T14:11:08.863Z,6.50
2024-03-20T14:13:37.584Z,6.50
2024-03-20T14:16:06.805Z,6.10
2024-03-20T14:18:35.426Z,5.20
2024-03-20T14:21:04.461Z,5.30
2024-03-20T14:23:36.171Z,6.90
2024-03-20T14:26:05.280Z,6.70
2024-03-20T14:28:40.465Z,6.40
2024-03-20T14:31:30.566Z,7.50
2024-03-20T14:34:20.047Z,7.10
2024-03-20T14:36:49.041Z,6.50
2024-03-20T14:39:18.697Z,6.10
2024-03-20T14:41:47.617Z,6.10
2024-03-20T14:44:16.244Z,6.00
2024-03-20T14:46:47.553Z,6.10
2024-03-20T14:49:17.975Z,6.10
2024-03-20T14:51:46.927Z,6.10
2024-03-20T14:54:15.854Z,5.40
2024-03-20T14:56:47.963Z,5.40
2024-03-20T14:59:17.450Z,4.90
2024-03-20T15:01:47.227Z,5.40
2024-03-20T15:04:16.507Z,6.00
2024-03-20T15:06:45.064Z,5.80
2024-03-20T15:09:13.957Z,5.60
2024-03-20T15:11:45.314Z,5.80
2024-03-20T15:14:14.165Z,6.50
2024-03-20T15:16:42.935Z,5.80
2024-03-20T15:19:11.551Z,5.70
2024-03-20T15:21:39.526Z,5.80
2024-03-20T15:24:10.003Z,5.00
2024-03-20T15:26:41.199Z,4.80
2024-03-20T15:29:12.631Z,5.10
2024-03-20T15:31:41.468Z,5.80
2024-03-20T15:34:10.798Z,5.60
2024-03-20T15:36:39.545Z,5.90
2024-03-20T15:39:12.669Z,5.90
2024-03-20T15:44:49.506Z,5.40
2024-03-20T15:47:19.883Z,4.80
2024-03-20T15:49:48.882Z,4.60
2024-03-20T15:52:18.241Z,4.10
2024-03-20T15:54:47.582Z,3.70
2024-03-20T15:57:17.171Z,5.30
2024-03-20T15:59:45.795Z,4.70
2024-03-20T16:02:19.873Z,4.50
2024-03-20T16:04:48.953Z,4.10
2024-03-20T16:07:18.240Z,4.20
2024-03-20T16:09:48.719Z,3.90
2024-03-20T16:12:38.502Z,4.00
2024-03-20T16:15:09.548Z,4.10
2024-03-20T16:17:38.508Z,3.50
2024-03-20T16:20:20.831Z,3.80
2024-03-20T16:22:49.877Z,3.70
2024-03-20T16:25:18.816Z,3.30
2024-03-20T16:27:47.555Z,4.10
2024-03-20T16:30:22.957Z,3.90
2024-03-20T16:32:52.955Z,4.10
2024-03-20T16:35:25.548Z,2.90
2024-03-20T16:37:54.851Z,3.10
2024-03-20T16:40:32.591Z,3.50
2024-03-20T16:43:04.651Z,3.30
2024-03-20T16:45:33.671Z,2.90
2024-03-20T16:48:23.266Z,3.50
2024-03-20T16:50:52.021Z,3.40
2024-03-20T16:53:20.965Z,3.50
2024-03-20T16:55:49.684Z,3.00
2024-03-20T16:58:18.438Z,3.60
2024-03-20T17:00:50.694Z,3.40
2024-03-20T17:03:19.389Z,3.40
2024-03-20T17:05:48.263Z,2.80
2024-03-20T17:11:25.478Z,3.30
2024-03-20T17:13:56.797Z,3.50
2024-03-20T17:16:25.529Z,3.30
2024-03-20T17:18:54.151Z,3.10
2024-03-20T17:21:22.932Z,2.90
2024-03-20T17:23:56.418Z,3.00
2024-03-20T17:26:27.908Z,3.10
2024-03-20T17:28:58.954Z,3.20
2024-03-20T17:31:27.825Z,3.30
2024-03-20T17:34:00.744Z,2.80
2024-03-20T17:36:29.500Z,3.00
2024-03-20T17:38:59.165Z,2.80
2024-03-20T17:41:29.291Z,3.80
2024-03-20T17:43:58.048Z,3.90
2024-03-20T17:46:27.125Z,3.30
2024-03-20T17:48:56.660Z,2.90
2024-03-20T17:51:25.904Z,4.00
2024-03-20T17:53:56.266Z,3.50
2024-03-20T17:56:25.492Z,3.30
2024-03-20T17:58:55.995Z,3.00
2024-03-20T18:01:29.559Z,3.50
2024-03-20T18:03:58.823Z,2.60
2024-03-20T18:06:30.773Z,2.80
2024-03-20T18:08:59.503Z,3.10
2024-03-20T18:11:28.316Z,3.70
2024-03-20T18:14:00.089Z,2.90
2024-03-20T18:16:32.247Z,3.10
2024-03-20T18:19:04.583Z,2.90
2024-03-20T18:21:36.677Z,3.00
2024-03-20T18:37:14.726Z,2.60
2024-03-20T18:39:44.968Z,3.20
2024-03-20T18:42:15.391Z,3.20
2024-03-20T18:44:44.179Z,3.20
2024-03-20T18:47:14.174Z,3.00
2024-03-20T18:49:44.290Z,2.50
2024-03-20T18:52:14.636Z,2.60
2024-03-20T18:54:43.383Z,3.00
2024-03-20T18:57:12.698Z,2.70
2024-03-20T18:59:43.136Z,2.70
2024-03-20T19:02:14.972Z,3.00
2024-03-20T19:04:44.005Z,2.70
2024-03-20T19:07:12.817Z,2.50
2024-03-20T19:09:41.394Z,2.30
2024-03-20T19:12:11.171Z,2.90
2024-03-20T19:21:54.755Z,2.70
2024-03-20T19:24:23.614Z,2.60
2024-03-20T19:26:52.188Z,3.10
2024-03-20T19:29:20.978Z,3.20
2024-03-20T19:31:49.549Z,3.00
2024-03-20T19:34:23.443Z,3.10
2024-03-20T19:36:52.392Z,2.50
2024-03-20T19:39:25.165Z,2.80
2024-03-20T19:41:54.149Z,3.00
2024-03-20T19:44:22.736Z,2.60
2024-03-20T19:46:51.687Z,2.80
2024-03-20T19:49:21.100Z,2.50
2024-03-20T19:51:49.877Z,3.10
2024-03-20T19:54:18.568Z,2.90
2024-03-20T19:56:54.285Z,2.80
2024-03-20T19:59:23.106Z,2.80
2024-03-20T20:01:51.839Z,2.80
2024-03-20T20:04:21.264Z,3.00
2024-03-20T20:06:52.272Z,3.00
2024-03-20T20:09:22.417Z,2.90
2024-03-20T20:11:51.707Z,2.70
2024-03-20T20:14:20.822Z,3.20
2024-03-20T20:16:51.171Z,2.90
2024-03-20T20:22:29.512Z,2.60
2024-03-20T20:24:58.740Z,2.50
2024-03-20T20:27:54.226Z,2.70
2024-03-20T20:30:43.382Z,2.60
2024-03-20T20:33:12.148Z,2.90
2024-03-20T20:35:49.263Z,2.50
2024-03-20T20:38:21.737Z,2.90
2024-03-20T20:40:50.586Z,2.60
2024-03-20T20:43:21.820Z,2.30
2024-03-20T20:45:50.490Z,2.90
2024-03-20T20:48:20.940Z,2.90
2024-03-20T20:50:50.027Z,3.10
2024-03-20T20:53:18.882Z,2.80
2024-03-20T20:55:47.583Z,2.20
2024-03-20T20:58:16.330Z,3.20
2024-03-20T21:00:45.076Z,2.60
2024-03-20T21:03:31.968Z,2.40
2024-03-20T21:06:26.882Z,2.70
2024-03-20T21:09:13.896Z,2.50
2024-03-20T21:12:01.932Z,2.90
2024-03-20T21:14:49.148Z,2.40
2024-03-20T21:17:36.075Z,2.90
2024-03-20T21:20:10.418Z,2.00
2024-03-20T21:22:39.288Z,2.10
2024-03-20T21:25:10.642Z,2.30
2024-03-20T21:27:39.393Z,2.30
2024-03-20T21:30:09.234Z,2.40
2024-03-20T21:32:38.032Z,2.50
2024-03-20T21:35:08.512Z,2.40
2024-03-20T21:37:37.847Z,2.30
2024-03-20T21:40:08.297Z,2.60
2024-03-20T21:42:36.870Z,2.40
2024-03-20T21:45:06.183Z,2.30
2024-03-20T21:47:34.951Z,2.70
2024-03-20T21:50:13.172Z,2.70
2024-03-20T21:52:41.798Z,2.50
2024-03-20T21:55:11.845Z,2.30
2024-03-20T21:57:40.650Z,2.20
2024-03-20T22:00:11.070Z,2.40
2024-03-20T22:02:39.802Z,2.60
2024-03-20T22:05:08.735Z,2.60
2024-03-20T22:07:37.548Z,2.30
2024-03-20T22:10:23.518Z,2.20
2024-03-20T22:12:54.345Z,2.00
2024-03-20T22:15:24.245Z,2.80
2024-03-20T22:17:53.609Z,2.70
2024-03-20T22:20:25.107Z,2.60
2024-03-20T22:22:53.779Z,3.00
2024-03-20T22:25:29.077Z,2.10
2024-03-20T22:28:07.495Z,2.10
2024-03-20T22:30:37.054Z,2.40
2024-03-20T22:33:06.505Z,2.30
2024-03-20T22:35:35.536Z,2.90
2024-03-20T22:38:04.209Z,2.90
2024-03-20T22:40:32.887Z,2.80
2024-03-20T22:43:01.501Z,2.50
2024-03-20T22:45:33.666Z,3.00
2024-03-20T22:48:02.446Z,2.70
2024-03-20T22:50:33.209Z,3.20
2024-03-20T22:53:01.914Z,2.60
2024-03-20T22:55:31.229Z,2.90
2024-03-20T23:01:14.738Z,3.50
2024-03-20T23:03:43.527Z,3.30
2024-03-20T23:06:16.331Z,3.60
2024-03-20T23:08:44.956Z,3.60
2024-03-20T23:11:14.414Z,3.30
2024-03-20T23:13:43.413Z,3.10
2024-03-20T23:16:16.630Z,3.50
2024-03-20T23:18:45.786Z,3.50
2024-03-20T23:21:14.557Z,3.60
2024-03-20T23:23:43.424Z,3.30
2024-03-20T23:26:12.212Z,3.50
2024-03-20T23:28:41.028Z,3.40
2024-03-20T23:31:10.565Z,3.00
2024-03-20T23:33:39.279Z,3.60
2024-03-20T23:36:08.349Z,3.70
2024-03-20T23:38:37.062Z,4.00
2024-03-20T23:41:06.012Z,3.90
2024-03-20T23:43:34.962Z,4.20
2024-03-20T23:46:04.073Z,4.70
2024-03-20T23:48:32.828Z,4.50
2024-03-20T23:51:01.992Z,4.60
2024-03-20T23:53:31.149Z,4.60
2024-03-20T23:56:00.627Z,5.90
2024-03-20T23:58:29.734Z,4.20
